Terminal Aerodrome Forecast
Issued by NWS

Home | Current Version | Previous Version | Graphics & Text | Print | Product List | Glossary On
Versions: 1 2 3 4 5 6 7 8 9 10 11 12 13 14 15 16 17 18 19 20
000
FTUS43 KICT 171735
TAFHUT
TAF
KHUT 171735Z 1718/1818 14010KT P6SM SCT015 SCT050 BKN250
     FM172100 15005KT P6SM VCTS BKN050CB
     FM180300 VRB03KT P6SM VCTS BKN080CB
     FM180900 VRB03KT P6SM BKN060
     FM181200 12007KT P6SM BKN025=

USA.gov is the U.S. government's official web portal to all federal, state and local government web resources and services.